sensor_id;sensor_type;location;lat;lon;timestamp;P1;durP1;ratioP1;P2;durP2;ratioP2
24521;SDS011;12680;57.804;12.190;2023-01-08T00:01:56;8.10;;;3.58;;
24521;SDS011;12680;57.804;12.190;2023-01-08T00:04:23;6.03;;;3.63;;
24521;SDS011;12680;57.804;12.190;2023-01-08T00:06:49;6.82;;;4.28;;
24521;SDS011;12680;57.804;12.190;2023-01-08T00:09:16;5.53;;;3.50;;
24521;SDS011;12680;57.804;12.190;2023-01-08T00:11:43;8.52;;;4.25;;
24521;SDS011;12680;57.804;12.190;2023-01-08T00:14:10;8.07;;;4.20;;
24521;SDS011;12680;57.804;12.190;2023-01-08T00:16:36;7.35;;;4.30;;
24521;SDS011;12680;57.804;12.190;2023-01-08T00:19:03;6.82;;;4.57;;
24521;SDS011;12680;57.804;12.190;2023-01-08T00:21:30;9.48;;;5.35;;
24521;SDS011;12680;57.804;12.190;2023-01-08T00:23:57;10.05;;;5.40;;
24521;SDS011;12680;57.804;12.190;2023-01-08T00:26:23;9.18;;;5.63;;
24521;SDS011;12680;57.804;12.190;2023-01-08T00:28:50;9.95;;;5.68;;
24521;SDS011;12680;57.804;12.190;2023-01-08T00:31:17;10.95;;;5.68;;
24521;SDS011;12680;57.804;12.190;2023-01-08T00:33:44;11.65;;;6.90;;
24521;SDS011;12680;57.804;12.190;2023-01-08T00:36:14;12.88;;;7.38;;
24521;SDS011;12680;57.804;12.190;2023-01-08T00:38:43;11.43;;;6.88;;
24521;SDS011;12680;57.804;12.190;2023-01-08T00:41:11;9.75;;;6.00;;
24521;SDS011;12680;57.804;12.190;2023-01-08T00:43:39;12.68;;;6.63;;
24521;SDS011;12680;57.804;12.190;2023-01-08T00:46:06;12.32;;;6.70;;
24521;SDS011;12680;57.804;12.190;2023-01-08T00:48:33;14.07;;;7.68;;
24521;SDS011;12680;57.804;12.190;2023-01-08T00:51:04;12.75;;;7.70;;
24521;SDS011;12680;57.804;12.190;2023-01-08T00:53:32;12.10;;;7.50;;
24521;SDS011;12680;57.804;12.190;2023-01-08T00:56:03;14.38;;;7.47;;
24521;SDS011;12680;57.804;12.190;2023-01-08T00:58:31;15.23;;;8.05;;
24521;SDS011;12680;57.804;12.190;2023-01-08T01:00:58;15.35;;;8.88;;
24521;SDS011;12680;57.804;12.190;2023-01-08T01:03:25;12.95;;;7.80;;
24521;SDS011;12680;57.804;12.190;2023-01-08T01:05:59;14.40;;;8.30;;
24521;SDS011;12680;57.804;12.190;2023-01-08T01:08:26;14.93;;;8.23;;
24521;SDS011;12680;57.804;12.190;2023-01-08T01:10:53;16.05;;;8.98;;
24521;SDS011;12680;57.804;12.190;2023-01-08T01:13:20;13.38;;;8.35;;
24521;SDS011;12680;57.804;12.190;2023-01-08T01:15:57;15.38;;;8.73;;
24521;SDS011;12680;57.804;12.190;2023-01-08T01:18:25;14.55;;;8.95;;
24521;SDS011;12680;57.804;12.190;2023-01-08T01:20:52;13.80;;;8.68;;
24521;SDS011;12680;57.804;12.190;2023-01-08T01:23:19;20.63;;;9.32;;
24521;SDS011;12680;57.804;12.190;2023-01-08T01:25:46;14.90;;;9.07;;
24521;SDS011;12680;57.804;12.190;2023-01-08T01:28:13;17.17;;;8.93;;
24521;SDS011;12680;57.804;12.190;2023-01-08T01:30:40;16.15;;;9.55;;
24521;SDS011;12680;57.804;12.190;2023-01-08T01:33:07;15.35;;;9.32;;
24521;SDS011;12680;57.804;12.190;2023-01-08T01:35:33;15.10;;;9.35;;
24521;SDS011;12680;57.804;12.190;2023-01-08T01:38:00;15.90;;;9.02;;
24521;SDS011;12680;57.804;12.190;2023-01-08T01:40:27;15.02;;;9.10;;
24521;SDS011;12680;57.804;12.190;2023-01-08T01:42:53;14.52;;;9.50;;
24521;SDS011;12680;57.804;12.190;2023-01-08T01:45:21;16.88;;;8.60;;
24521;SDS011;12680;57.804;12.190;2023-01-08T01:47:58;14.52;;;9.00;;
24521;SDS011;12680;57.804;12.190;2023-01-08T01:50:36;15.52;;;9.70;;
24521;SDS011;12680;57.804;12.190;2023-01-08T01:53:11;18.63;;;9.13;;
24521;SDS011;12680;57.804;12.190;2023-01-08T01:55:40;13.82;;;8.73;;
24521;SDS011;12680;57.804;12.190;2023-01-08T01:58:20;15.45;;;9.07;;
24521;SDS011;12680;57.804;12.190;2023-01-08T02:00:50;13.63;;;8.03;;
24521;SDS011;12680;57.804;12.190;2023-01-08T02:03:25;15.02;;;8.73;;
24521;SDS011;12680;57.804;12.190;2023-01-08T02:05:59;14.20;;;8.38;;
24521;SDS011;12680;57.804;12.190;2023-01-08T02:08:52;16.38;;;8.63;;
24521;SDS011;12680;57.804;12.190;2023-01-08T02:11:52;10.80;;;7.75;;
24521;SDS011;12680;57.804;12.190;2023-01-08T02:20:29;13.05;;;7.68;;
24521;SDS011;12680;57.804;12.190;2023-01-08T02:28:26;9.90;;;6.82;;
24521;SDS011;12680;57.804;12.190;2023-01-08T02:30:55;11.50;;;7.05;;
24521;SDS011;12680;57.804;12.190;2023-01-08T02:33:23;12.80;;;7.43;;
24521;SDS011;12680;57.804;12.190;2023-01-08T02:35:54;10.40;;;6.85;;
24521;SDS011;12680;57.804;12.190;2023-01-08T02:39:00;10.55;;;6.53;;
24521;SDS011;12680;57.804;12.190;2023-01-08T02:44:17;11.65;;;6.55;;
24521;SDS011;12680;57.804;12.190;2023-01-08T02:47:04;10.20;;;6.38;;
24521;SDS011;12680;57.804;12.190;2023-01-08T02:52:06;10.27;;;6.43;;
24521;SDS011;12680;57.804;12.190;2023-01-08T02:54:35;7.55;;;5.30;;
24521;SDS011;12680;57.804;12.190;2023-01-08T02:57:05;12.45;;;6.80;;
24521;SDS011;12680;57.804;12.190;2023-01-08T02:59:36;8.50;;;5.30;;
24521;SDS011;12680;57.804;12.190;2023-01-08T03:02:05;10.75;;;5.88;;
24521;SDS011;12680;57.804;12.190;2023-01-08T03:04:34;8.63;;;5.15;;
24521;SDS011;12680;57.804;12.190;2023-01-08T03:07:04;10.27;;;5.75;;
24521;SDS011;12680;57.804;12.190;2023-01-08T03:09:31;9.10;;;5.47;;
24521;SDS011;12680;57.804;12.190;2023-01-08T03:11:59;9.38;;;5.63;;
24521;SDS011;12680;57.804;12.190;2023-01-08T03:14:42;8.23;;;5.88;;
24521;SDS011;12680;57.804;12.190;2023-01-08T03:17:22;8.38;;;5.50;;
24521;SDS011;12680;57.804;12.190;2023-01-08T03:20:05;8.35;;;4.63;;
24521;SDS011;12680;57.804;12.190;2023-01-08T03:22:36;7.63;;;5.53;;
24521;SDS011;12680;57.804;12.190;2023-01-08T03:25:05;7.03;;;5.03;;
24521;SDS011;12680;57.804;12.190;2023-01-08T03:27:34;7.25;;;5.50;;
24521;SDS011;12680;57.804;12.190;2023-01-08T03:30:06;7.70;;;5.35;;
24521;SDS011;12680;57.804;12.190;2023-01-08T03:32:33;8.50;;;5.07;;
24521;SDS011;12680;57.804;12.190;2023-01-08T03:35:01;8.13;;;4.82;;
24521;SDS011;12680;57.804;12.190;2023-01-08T03:37:32;9.77;;;5.57;;
24521;SDS011;12680;57.804;12.190;2023-01-08T03:40:06;8.98;;;5.13;;
24521;SDS011;12680;57.804;12.190;2023-01-08T03:42:39;8.65;;;5.75;;
24521;SDS011;12680;57.804;12.190;2023-01-08T03:45:06;6.55;;;5.00;;
24521;SDS011;12680;57.804;12.190;2023-01-08T03:47:33;7.05;;;5.30;;
24521;SDS011;12680;57.804;12.190;2023-01-08T03:50:03;8.20;;;5.18;;
24521;SDS011;12680;57.804;12.190;2023-01-08T03:52:34;8.15;;;5.15;;
24521;SDS011;12680;57.804;12.190;2023-01-08T03:55:01;7.22;;;5.22;;
24521;SDS011;12680;57.804;12.190;2023-01-08T03:57:28;8.50;;;5.13;;
24521;SDS011;12680;57.804;12.190;2023-01-08T03:59:54;6.65;;;5.03;;
24521;SDS011;12680;57.804;12.190;2023-01-08T04:02:21;7.55;;;5.28;;
24521;SDS011;12680;57.804;12.190;2023-01-08T04:04:48;8.82;;;5.20;;
24521;SDS011;12680;57.804;12.190;2023-01-08T04:07:15;7.18;;;4.75;;
24521;SDS011;12680;57.804;12.190;2023-01-08T04:09:42;8.60;;;5.15;;
24521;SDS011;12680;57.804;12.190;2023-01-08T04:12:08;9.13;;;4.50;;
24521;SDS011;12680;57.804;12.190;2023-01-08T04:14:35;8.23;;;5.20;;
24521;SDS011;12680;57.804;12.190;2023-01-08T04:17:02;8.75;;;5.57;;
24521;SDS011;12680;57.804;12.190;2023-01-08T04:19:28;10.98;;;5.65;;
24521;SDS011;12680;57.804;12.190;2023-01-08T04:21:55;8.13;;;5.00;;
24521;SDS011;12680;57.804;12.190;2023-01-08T04:24:22;9.13;;;5.45;;
24521;SDS011;12680;57.804;12.190;2023-01-08T04:26:49;9.70;;;5.43;;
24521;SDS011;12680;57.804;12.190;2023-01-08T04:29:15;8.80;;;5.57;;
24521;SDS011;12680;57.804;12.190;2023-01-08T04:31:42;7.15;;;5.47;;
24521;SDS011;12680;57.804;12.190;2023-01-08T04:34:09;9.20;;;5.47;;
24521;SDS011;12680;57.804;12.190;2023-01-08T04:36:36;6.45;;;5.10;;
24521;SDS011;12680;57.804;12.190;2023-01-08T04:39:03;6.70;;;5.07;;
24521;SDS011;12680;57.804;12.190;2023-01-08T04:41:30;8.35;;;4.82;;
24521;SDS011;12680;57.804;12.190;2023-01-08T04:43:56;7.93;;;5.40;;
24521;SDS011;12680;57.804;12.190;2023-01-08T04:46:23;7.90;;;5.38;;
24521;SDS011;12680;57.804;12.190;2023-01-08T04:48:50;10.43;;;5.07;;
24521;SDS011;12680;57.804;12.190;2023-01-08T04:51:16;8.57;;;5.32;;
24521;SDS011;12680;57.804;12.190;2023-01-08T04:53:43;9.45;;;5.93;;
24521;SDS011;12680;57.804;12.190;2023-01-08T04:56:11;6.50;;;4.90;;
24521;SDS011;12680;57.804;12.190;2023-01-08T04:58:38;9.70;;;6.00;;
24521;SDS011;12680;57.804;12.190;2023-01-08T05:01:09;7.85;;;5.28;;
24521;SDS011;12680;57.804;12.190;2023-01-08T05:03:38;9.60;;;6.07;;
24521;SDS011;12680;57.804;12.190;2023-01-08T05:06:05;8.77;;;5.93;;
24521;SDS011;12680;57.804;12.190;2023-01-08T05:08:33;8.75;;;5.68;;
24521;SDS011;12680;57.804;12.190;2023-01-08T05:11:00;9.35;;;6.15;;
24521;SDS011;12680;57.804;12.190;2023-01-08T05:13:27;8.40;;;6.07;;
24521;SDS011;12680;57.804;12.190;2023-01-08T05:15:57;12.38;;;6.57;;
24521;SDS011;12680;57.804;12.190;2023-01-08T05:18:25;9.68;;;6.03;;
24521;SDS011;12680;57.804;12.190;2023-01-08T05:20:53;10.52;;;6.13;;
24521;SDS011;12680;57.804;12.190;2023-01-08T05:23:19;7.43;;;5.90;;
24521;SDS011;12680;57.804;12.190;2023-01-08T05:25:46;10.65;;;6.80;;
24521;SDS011;12680;57.804;12.190;2023-01-08T05:28:13;11.27;;;6.53;;
24521;SDS011;12680;57.804;12.190;2023-01-08T05:30:40;9.30;;;6.43;;
24521;SDS011;12680;57.804;12.190;2023-01-08T05:33:06;12.90;;;6.32;;
24521;SDS011;12680;57.804;12.190;2023-01-08T05:35:33;9.57;;;6.22;;
24521;SDS011;12680;57.804;12.190;2023-01-08T05:38:00;10.90;;;6.10;;
24521;SDS011;12680;57.804;12.190;2023-01-08T05:40:26;9.35;;;5.72;;
24521;SDS011;12680;57.804;12.190;2023-01-08T05:42:53;9.30;;;6.25;;
24521;SDS011;12680;57.804;12.190;2023-01-08T05:45:20;10.65;;;6.90;;
24521;SDS011;12680;57.804;12.190;2023-01-08T05:47:47;11.73;;;6.32;;
24521;SDS011;12680;57.804;12.190;2023-01-08T05:50:13;9.20;;;6.10;;
24521;SDS011;12680;57.804;12.190;2023-01-08T05:52:40;8.57;;;6.22;;
24521;SDS011;12680;57.804;12.190;2023-01-08T05:55:07;12.90;;;6.80;;
24521;SDS011;12680;57.804;12.190;2023-01-08T05:57:34;10.77;;;6.38;;
24521;SDS011;12680;57.804;12.190;2023-01-08T06:00:01;11.43;;;6.63;;
24521;SDS011;12680;57.804;12.190;2023-01-08T06:02:30;9.75;;;6.22;;
24521;SDS011;12680;57.804;12.190;2023-01-08T06:04:57;8.82;;;5.40;;
24521;SDS011;12680;57.804;12.190;2023-01-08T06:07:23;8.52;;;5.72;;
24521;SDS011;12680;57.804;12.190;2023-01-08T06:09:50;8.20;;;5.40;;
24521;SDS011;12680;57.804;12.190;2023-01-08T06:12:17;10.45;;;5.72;;
24521;SDS011;12680;57.804;12.190;2023-01-08T06:14:44;8.05;;;5.00;;
24521;SDS011;12680;57.804;12.190;2023-01-08T06:17:11;12.77;;;5.13;;
24521;SDS011;12680;57.804;12.190;2023-01-08T06:19:37;9.65;;;5.40;;
24521;SDS011;12680;57.804;12.190;2023-01-08T06:22:04;8.88;;;5.15;;
24521;SDS011;12680;57.804;12.190;2023-01-08T06:24:31;7.50;;;4.57;;
24521;SDS011;12680;57.804;12.190;2023-01-08T06:26:58;6.63;;;4.00;;
24521;SDS011;12680;57.804;12.190;2023-01-08T06:29:24;6.45;;;4.28;;
24521;SDS011;12680;57.804;12.190;2023-01-08T06:31:51;6.00;;;4.05;;
24521;SDS011;12680;57.804;12.190;2023-01-08T06:34:18;4.43;;;3.75;;
24521;SDS011;12680;57.804;12.190;2023-01-08T06:36:45;4.38;;;3.20;;
24521;SDS011;12680;57.804;12.190;2023-01-08T06:39:11;5.60;;;3.63;;
24521;SDS011;12680;57.804;12.190;2023-01-08T06:41:38;4.05;;;3.22;;
24521;SDS011;12680;57.804;12.190;2023-01-08T06:44:05;5.05;;;3.47;;
24521;SDS011;12680;57.804;12.190;2023-01-08T06:46:32;3.70;;;3.30;;
24521;SDS011;12680;57.804;12.190;2023-01-08T06:49:03;3.97;;;2.97;;
24521;SDS011;12680;57.804;12.190;2023-01-08T06:51:30;4.28;;;2.70;;
24521;SDS011;12680;57.804;12.190;2023-01-08T06:53:56;3.45;;;2.30;;
24521;SDS011;12680;57.804;12.190;2023-01-08T06:56:23;5.28;;;2.65;;
24521;SDS011;12680;57.804;12.190;2023-01-08T06:58:50;3.20;;;2.67;;
24521;SDS011;12680;57.804;12.190;2023-01-08T07:01:17;3.85;;;2.83;;
24521;SDS011;12680;57.804;12.190;2023-01-08T07:03:44;3.33;;;2.47;;
24521;SDS011;12680;57.804;12.190;2023-01-08T07:06:12;4.18;;;2.88;;
24521;SDS011;12680;57.804;12.190;2023-01-08T07:08:44;3.15;;;2.58;;
24521;SDS011;12680;57.804;12.190;2023-01-08T07:11:11;4.25;;;2.95;;
24521;SDS011;12680;57.804;12.190;2023-01-08T07:13:38;3.17;;;2.55;;
24521;SDS011;12680;57.804;12.190;2023-01-08T07:16:08;3.70;;;2.78;;
24521;SDS011;12680;57.804;12.190;2023-01-08T07:18:39;4.32;;;3.17;;
24521;SDS011;12680;57.804;12.190;2023-01-08T07:21:07;4.43;;;3.00;;
24521;SDS011;12680;57.804;12.190;2023-01-08T07:23:34;3.40;;;2.80;;
24521;SDS011;12680;57.804;12.190;2023-01-08T07:26:02;4.00;;;2.67;;
24521;SDS011;12680;57.804;12.190;2023-01-08T07:28:30;4.38;;;3.42;;
24521;SDS011;12680;57.804;12.190;2023-01-08T07:30:57;6.03;;;3.80;;
24521;SDS011;12680;57.804;12.190;2023-01-08T07:33:28;5.80;;;3.70;;
24521;SDS011;12680;57.804;12.190;2023-01-08T07:35:55;6.18;;;4.40;;
24521;SDS011;12680;57.804;12.190;2023-01-08T07:38:22;7.30;;;4.85;;
24521;SDS011;12680;57.804;12.190;2023-01-08T07:40:49;8.77;;;5.25;;
24521;SDS011;12680;57.804;12.190;2023-01-08T07:43:16;6.88;;;4.80;;
24521;SDS011;12680;57.804;12.190;2023-01-08T07:45:43;9.70;;;5.30;;
24521;SDS011;12680;57.804;12.190;2023-01-08T07:48:09;11.07;;;6.63;;
24521;SDS011;12680;57.804;12.190;2023-01-08T07:50:44;11.38;;;6.85;;
24521;SDS011;12680;57.804;12.190;2023-01-08T07:53:11;12.43;;;7.57;;
24521;SDS011;12680;57.804;12.190;2023-01-08T07:55:38;12.43;;;7.57;;
24521;SDS011;12680;57.804;12.190;2023-01-08T07:58:14;14.85;;;8.13;;
24521;SDS011;12680;57.804;12.190;2023-01-08T08:00:41;15.35;;;8.48;;
24521;SDS011;12680;57.804;12.190;2023-01-08T08:03:08;17.25;;;8.35;;
24521;SDS011;12680;57.804;12.190;2023-01-08T08:05:38;11.77;;;7.72;;
24521;SDS011;12680;57.804;12.190;2023-01-08T08:08:08;13.73;;;8.85;;
24521;SDS011;12680;57.804;12.190;2023-01-08T08:10:36;14.55;;;8.65;;
24521;SDS011;12680;57.804;12.190;2023-01-08T08:13:03;15.80;;;8.65;;
24521;SDS011;12680;57.804;12.190;2023-01-08T08:15:30;15.85;;;8.57;;
24521;SDS011;12680;57.804;12.190;2023-01-08T08:17:58;15.07;;;8.63;;
24521;SDS011;12680;57.804;12.190;2023-01-08T08:20:25;15.05;;;8.90;;
24521;SDS011;12680;57.804;12.190;2023-01-08T08:22:58;16.13;;;8.60;;
24521;SDS011;12680;57.804;12.190;2023-01-08T08:25:26;14.20;;;8.95;;
24521;SDS011;12680;57.804;12.190;2023-01-08T08:27:54;16.10;;;8.65;;
24521;SDS011;12680;57.804;12.190;2023-01-08T08:30:22;18.77;;;9.30;;
24521;SDS011;12680;57.804;12.190;2023-01-08T08:32:50;12.45;;;8.05;;
24521;SDS011;12680;57.804;12.190;2023-01-08T08:35:17;14.75;;;8.48;;
24521;SDS011;12680;57.804;12.190;2023-01-08T08:37:43;16.33;;;9.20;;
24521;SDS011;12680;57.804;12.190;2023-01-08T08:40:10;14.13;;;8.30;;
24521;SDS011;12680;57.804;12.190;2023-01-08T08:42:37;19.83;;;9.15;;
24521;SDS011;12680;57.804;12.190;2023-01-08T08:45:04;15.75;;;8.70;;
24521;SDS011;12680;57.804;12.190;2023-01-08T08:47:31;15.73;;;9.57;;
24521;SDS011;12680;57.804;12.190;2023-01-08T08:49:58;13.13;;;8.43;;
24521;SDS011;12680;57.804;12.190;2023-01-08T08:52:25;16.38;;;8.70;;
24521;SDS011;12680;57.804;12.190;2023-01-08T08:54:51;14.32;;;8.88;;
24521;SDS011;12680;57.804;12.190;2023-01-08T08:57:18;15.02;;;8.43;;
24521;SDS011;12680;57.804;12.190;2023-01-08T08:59:45;18.52;;;9.10;;
24521;SDS011;12680;57.804;12.190;2023-01-08T09:02:12;16.35;;;8.35;;
24521;SDS011;12680;57.804;12.190;2023-01-08T09:04:39;14.55;;;9.30;;
24521;SDS011;12680;57.804;12.190;2023-01-08T09:07:06;15.27;;;9.75;;
24521;SDS011;12680;57.804;12.190;2023-01-08T09:09:32;19.13;;;9.15;;
24521;SDS011;12680;57.804;12.190;2023-01-08T09:11:59;14.93;;;8.25;;
24521;SDS011;12680;57.804;12.190;2023-01-08T09:14:27;14.57;;;9.02;;
24521;SDS011;12680;57.804;12.190;2023-01-08T09:16:54;18.48;;;9.70;;
24521;SDS011;12680;57.804;12.190;2023-01-08T09:19:20;13.48;;;8.95;;
24521;SDS011;12680;57.804;12.190;2023-01-08T09:21:48;12.68;;;8.02;;
24521;SDS011;12680;57.804;12.190;2023-01-08T09:24:16;16.10;;;10.10;;
24521;SDS011;12680;57.804;12.190;2023-01-08T09:26:42;16.23;;;9.10;;
24521;SDS011;12680;57.804;12.190;2023-01-08T09:29:09;14.63;;;9.18;;
24521;SDS011;12680;57.804;12.190;2023-01-08T09:31:36;14.85;;;8.13;;
24521;SDS011;12680;57.804;12.190;2023-01-08T09:34:03;14.02;;;8.90;;
24521;SDS011;12680;57.804;12.190;2023-01-08T09:36:29;13.35;;;8.60;;
24521;SDS011;12680;57.804;12.190;2023-01-08T09:38:56;15.32;;;8.32;;
24521;SDS011;12680;57.804;12.190;2023-01-08T09:41:30;16.65;;;8.27;;
24521;SDS011;12680;57.804;12.190;2023-01-08T09:43:59;15.75;;;7.85;;
24521;SDS011;12680;57.804;12.190;2023-01-08T09:46:29;12.75;;;7.90;;
24521;SDS011;12680;57.804;12.190;2023-01-08T09:49:16;11.90;;;7.63;;
24521;SDS011;12680;57.804;12.190;2023-01-08T09:51:47;21.35;;;8.88;;
24521;SDS011;12680;57.804;12.190;2023-01-08T09:54:15;13.32;;;7.70;;
24521;SDS011;12680;57.804;12.190;2023-01-08T09:56:42;14.75;;;8.65;;
24521;SDS011;12680;57.804;12.190;2023-01-08T09:59:11;14.90;;;8.52;;
24521;SDS011;12680;57.804;12.190;2023-01-08T10:01:42;15.48;;;8.35;;
24521;SDS011;12680;57.804;12.190;2023-01-08T10:04:16;13.63;;;7.88;;
24521;SDS011;12680;57.804;12.190;2023-01-08T10:06:56;13.05;;;8.50;;
24521;SDS011;12680;57.804;12.190;2023-01-08T10:09:39;17.13;;;8.55;;
24521;SDS011;12680;57.804;12.190;2023-01-08T10:12:06;15.32;;;7.93;;
24521;SDS011;12680;57.804;12.190;2023-01-08T10:14:38;14.73;;;8.23;;
24521;SDS011;12680;57.804;12.190;2023-01-08T10:17:16;16.73;;;8.13;;
24521;SDS011;12680;57.804;12.190;2023-01-08T10:19:52;15.82;;;8.52;;
24521;SDS011;12680;57.804;12.190;2023-01-08T10:22:20;14.20;;;7.70;;
24521;SDS011;12680;57.804;12.190;2023-01-08T10:24:49;15.80;;;8.73;;
24521;SDS011;12680;57.804;12.190;2023-01-08T10:27:17;13.63;;;8.23;;
24521;SDS011;12680;57.804;12.190;2023-01-08T10:29:46;17.70;;;8.07;;
24521;SDS011;12680;57.804;12.190;2023-01-08T10:32:17;15.32;;;8.60;;
24521;SDS011;12680;57.804;12.190;2023-01-08T10:34:49;14.57;;;8.50;;
24521;SDS011;12680;57.804;12.190;2023-01-08T10:43:14;15.52;;;8.23;;
24521;SDS011;12680;57.804;12.190;2023-01-08T10:45:43;15.32;;;8.65;;
24521;SDS011;12680;57.804;12.190;2023-01-08T10:48:22;16.45;;;8.43;;
24521;SDS011;12680;57.804;12.190;2023-01-08T10:53:49;12.32;;;8.25;;
24521;SDS011;12680;57.804;12.190;2023-01-08T10:56:20;13.80;;;8.40;;
24521;SDS011;12680;57.804;12.190;2023-01-08T10:58:49;12.95;;;8.50;;
24521;SDS011;12680;57.804;12.190;2023-01-08T11:01:26;12.70;;;8.50;;
24521;SDS011;12680;57.804;12.190;2023-01-08T11:03:55;15.38;;;8.90;;
24521;SDS011;12680;57.804;12.190;2023-01-08T11:06:35;15.70;;;7.95;;
24521;SDS011;12680;57.804;12.190;2023-01-08T11:09:23;15.18;;;8.63;;
24521;SDS011;12680;57.804;12.190;2023-01-08T11:11:53;14.32;;;8.43;;
24521;SDS011;12680;57.804;12.190;2023-01-08T11:14:21;13.95;;;8.88;;
24521;SDS011;12680;57.804;12.190;2023-01-08T11:16:52;13.90;;;8.30;;
24521;SDS011;12680;57.804;12.190;2023-01-08T11:19:23;17.52;;;8.68;;
24521;SDS011;12680;57.804;12.190;2023-01-08T11:21:57;15.25;;;8.85;;
24521;SDS011;12680;57.804;12.190;2023-01-08T11:24:26;16.20;;;8.98;;
24521;SDS011;12680;57.804;12.190;2023-01-08T11:26:56;13.68;;;8.57;;
24521;SDS011;12680;57.804;12.190;2023-01-08T11:32:29;13.00;;;7.90;;
24521;SDS011;12680;57.804;12.190;2023-01-08T11:35:27;16.63;;;8.23;;
24521;SDS011;12680;57.804;12.190;2023-01-08T11:38:00;16.23;;;8.32;;
24521;SDS011;12680;57.804;12.190;2023-01-08T11:54:29;10.70;;;7.55;;
24521;SDS011;12680;57.804;12.190;2023-01-08T12:03:01;16.48;;;8.60;;
24521;SDS011;12680;57.804;12.190;2023-01-08T12:08:21;14.88;;;8.40;;
24521;SDS011;12680;57.804;12.190;2023-01-08T12:11:19;19.42;;;9.05;;
24521;SDS011;12680;57.804;12.190;2023-01-08T12:17:18;17.70;;;9.20;;
24521;SDS011;12680;57.804;12.190;2023-01-08T12:23:03;18.58;;;9.90;;
24521;SDS011;12680;57.804;12.190;2023-01-08T12:28:23;12.52;;;7.57;;
24521;SDS011;12680;57.804;12.190;2023-01-08T12:33:52;18.58;;;9.27;;
24521;SDS011;12680;57.804;12.190;2023-01-08T12:36:29;15.88;;;7.93;;
24521;SDS011;12680;57.804;12.190;2023-01-08T12:39:02;13.45;;;7.90;;
24521;SDS011;12680;57.804;12.190;2023-01-08T12:41:34;13.63;;;8.25;;
24521;SDS011;12680;57.804;12.190;2023-01-08T12:44:03;17.73;;;8.57;;
24521;SDS011;12680;57.804;12.190;2023-01-08T12:46:35;13.40;;;7.88;;
24521;SDS011;12680;57.804;12.190;2023-01-08T12:49:04;12.93;;;8.00;;
24521;SDS011;12680;57.804;12.190;2023-01-08T12:51:37;16.13;;;8.38;;
24521;SDS011;12680;57.804;12.190;2023-01-08T12:57:11;14.52;;;8.23;;
24521;SDS011;12680;57.804;12.190;2023-01-08T13:07:45;14.27;;;8.20;;
24521;SDS011;12680;57.804;12.190;2023-01-08T13:12:59;12.05;;;7.57;;
24521;SDS011;12680;57.804;12.190;2023-01-08T13:15:28;17.60;;;7.95;;
24521;SDS011;12680;57.804;12.190;2023-01-08T13:18:02;15.68;;;7.43;;
24521;SDS011;12680;57.804;12.190;2023-01-08T13:20:42;9.35;;;7.30;;
24521;SDS011;12680;57.804;12.190;2023-01-08T13:23:25;15.57;;;7.95;;
24521;SDS011;12680;57.804;12.190;2023-01-08T13:25:57;13.98;;;7.95;;
24521;SDS011;12680;57.804;12.190;2023-01-08T13:28:37;14.40;;;6.78;;
24521;SDS011;12680;57.804;12.190;2023-01-08T13:33:46;14.55;;;7.50;;
24521;SDS011;12680;57.804;12.190;2023-01-08T13:36:19;12.13;;;7.25;;
24521;SDS011;12680;57.804;12.190;2023-01-08T13:41:43;11.70;;;8.07;;
24521;SDS011;12680;57.804;12.190;2023-01-08T13:44:31;16.42;;;7.75;;
24521;SDS011;12680;57.804;12.190;2023-01-08T13:47:02;11.30;;;6.93;;
24521;SDS011;12680;57.804;12.190;2023-01-08T13:49:41;18.67;;;7.97;;
24521;SDS011;12680;57.804;12.190;2023-01-08T13:55:02;16.77;;;7.88;;
24521;SDS011;12680;57.804;12.190;2023-01-08T13:57:33;13.07;;;7.07;;
24521;SDS011;12680;57.804;12.190;2023-01-08T14:00:05;16.92;;;8.60;;
24521;SDS011;12680;57.804;12.190;2023-01-08T14:02:42;16.98;;;8.10;;
24521;SDS011;12680;57.804;12.190;2023-01-08T14:05:22;13.13;;;7.90;;
24521;SDS011;12680;57.804;12.190;2023-01-08T14:07:54;15.13;;;7.88;;
24521;SDS011;12680;57.804;12.190;2023-01-08T14:10:22;14.48;;;7.88;;
24521;SDS011;12680;57.804;12.190;2023-01-08T14:12:51;17.42;;;8.48;;
24521;SDS011;12680;57.804;12.190;2023-01-08T14:15:22;13.07;;;8.32;;
24521;SDS011;12680;57.804;12.190;2023-01-08T14:17:52;15.20;;;8.20;;
24521;SDS011;12680;57.804;12.190;2023-01-08T14:20:54;17.77;;;8.57;;
24521;SDS011;12680;57.804;12.190;2023-01-08T14:23:20;13.52;;;8.15;;
24521;SDS011;12680;57.804;12.190;2023-01-08T14:25:50;16.95;;;8.60;;
24521;SDS011;12680;57.804;12.190;2023-01-08T14:28:18;17.73;;;7.80;;
24521;SDS011;12680;57.804;12.190;2023-01-08T14:30:47;13.60;;;7.88;;
24521;SDS011;12680;57.804;12.190;2023-01-08T14:33:16;16.58;;;8.70;;
24521;SDS011;12680;57.804;12.190;2023-01-08T14:35:46;14.87;;;8.43;;
24521;SDS011;12680;57.804;12.190;2023-01-08T14:38:16;12.65;;;7.75;;
24521;SDS011;12680;57.804;12.190;2023-01-08T14:40:44;16.02;;;8.77;;
24521;SDS011;12680;57.804;12.190;2023-01-08T14:43:16;12.55;;;8.02;;
24521;SDS011;12680;57.804;12.190;2023-01-08T14:45:49;18.05;;;9.40;;
24521;SDS011;12680;57.804;12.190;2023-01-08T14:48:19;12.20;;;8.05;;
24521;SDS011;12680;57.804;12.190;2023-01-08T14:50:59;14.40;;;7.70;;
24521;SDS011;12680;57.804;12.190;2023-01-08T14:55:58;19.20;;;8.80;;
24521;SDS011;12680;57.804;12.190;2023-01-08T14:58:27;15.70;;;8.27;;
24521;SDS011;12680;57.804;12.190;2023-01-08T15:01:00;13.30;;;8.15;;
24521;SDS011;12680;57.804;12.190;2023-01-08T15:06:05;16.58;;;8.48;;
24521;SDS011;12680;57.804;12.190;2023-01-08T15:08:34;14.07;;;8.60;;
24521;SDS011;12680;57.804;12.190;2023-01-08T15:11:03;14.23;;;8.93;;
24521;SDS011;12680;57.804;12.190;2023-01-08T15:13:35;14.60;;;9.00;;
24521;SDS011;12680;57.804;12.190;2023-01-08T15:16:09;15.35;;;8.98;;
24521;SDS011;12680;57.804;12.190;2023-01-08T15:21:36;14.50;;;8.23;;
24521;SDS011;12680;57.804;12.190;2023-01-08T15:24:04;15.93;;;8.88;;
24521;SDS011;12680;57.804;12.190;2023-01-08T15:26:32;16.00;;;9.88;;
24521;SDS011;12680;57.804;12.190;2023-01-08T15:29:00;13.80;;;8.90;;
24521;SDS011;12680;57.804;12.190;2023-01-08T15:31:31;14.77;;;9.13;;
24521;SDS011;12680;57.804;12.190;2023-01-08T15:34:00;15.40;;;8.95;;
24521;SDS011;12680;57.804;12.190;2023-01-08T15:36:27;15.38;;;8.98;;
24521;SDS011;12680;57.804;12.190;2023-01-08T15:38:54;18.42;;;9.55;;
24521;SDS011;12680;57.804;12.190;2023-01-08T15:41:21;17.45;;;8.95;;
24521;SDS011;12680;57.804;12.190;2023-01-08T15:44:08;16.20;;;9.75;;
24521;SDS011;12680;57.804;12.190;2023-01-08T15:46:37;17.30;;;9.10;;
24521;SDS011;12680;57.804;12.190;2023-01-08T15:49:04;15.07;;;9.75;;
24521;SDS011;12680;57.804;12.190;2023-01-08T15:51:32;13.18;;;9.20;;
24521;SDS011;12680;57.804;12.190;2023-01-08T15:54:00;17.60;;;9.93;;
24521;SDS011;12680;57.804;12.190;2023-01-08T15:56:27;16.55;;;9.77;;
24521;SDS011;12680;57.804;12.190;2023-01-08T15:58:54;13.95;;;8.40;;
24521;SDS011;12680;57.804;12.190;2023-01-08T16:01:21;16.02;;;8.43;;
24521;SDS011;12680;57.804;12.190;2023-01-08T16:03:47;14.68;;;9.02;;
24521;SDS011;12680;57.804;12.190;2023-01-08T16:06:15;12.98;;;8.55;;
24521;SDS011;12680;57.804;12.190;2023-01-08T16:08:41;14.63;;;8.50;;
24521;SDS011;12680;57.804;12.190;2023-01-08T16:11:11;18.88;;;9.50;;
24521;SDS011;12680;57.804;12.190;2023-01-08T16:13:39;18.38;;;9.10;;
24521;SDS011;12680;57.804;12.190;2023-01-08T16:16:09;18.80;;;9.05;;